sensor_id;sensor_type;location;lat;lon;timestamp;pressure;altitude;pressure_sealevel;temperature;humidity
38466;BME280;24244;51.950;5.902;2023-09-08T00:02:25;101635.41;;;20.63;74.62
38466;BME280;24244;51.950;5.902;2023-09-08T00:04:53;101632.13;;;20.61;74.61
38466;BME280;24244;51.950;5.902;2023-09-08T00:07:20;101631.78;;;20.58;74.57
38466;BME280;24244;51.950;5.902;2023-09-08T00:09:48;101632.44;;;20.53;74.56
38466;BME280;24244;51.950;5.902;2023-09-08T00:12:15;101629.38;;;20.50;74.71
38466;BME280;24244;51.950;5.902;2023-09-08T00:14:43;101639.81;;;20.46;74.83
38466;BME280;24244;51.950;5.902;2023-09-08T00:17:11;101635.72;;;20.44;74.79
38466;BME280;24244;51.950;5.902;2023-09-08T00:19:38;101639.91;;;20.40;74.95
38466;BME280;24244;51.950;5.902;2023-09-08T00:22:05;101644.75;;;20.38;74.94
38466;BME280;24244;51.950;5.902;2023-09-08T00:24:34;101645.19;;;20.35;74.88
38466;BME280;24244;51.950;5.902;2023-09-08T00:27:03;101643.72;;;20.32;74.95
38466;BME280;24244;51.950;5.902;2023-09-08T00:29:30;101639.63;;;20.29;75.10
38466;BME280;24244;51.950;5.902;2023-09-08T00:31:57;101641.72;;;20.27;75.19
38466;BME280;24244;51.950;5.902;2023-09-08T00:34:24;101650.03;;;20.26;75.23
38466;BME280;24244;51.950;5.902;2023-09-08T00:36:50;101639.50;;;20.24;75.24
38466;BME280;24244;51.950;5.902;2023-09-08T00:39:18;101638.91;;;20.22;75.34
38466;BME280;24244;51.950;5.902;2023-09-08T00:41:45;101641.81;;;20.21;75.19
38466;BME280;24244;51.950;5.902;2023-09-08T00:44:13;101637.69;;;20.18;75.17
38466;BME280;24244;51.950;5.902;2023-09-08T00:46:40;101636.28;;;20.16;75.40
38466;BME280;24244;51.950;5.902;2023-09-08T00:49:07;101640.03;;;20.15;75.26
38466;BME280;24244;51.950;5.902;2023-09-08T00:51:36;101634.03;;;20.13;75.55
38466;BME280;24244;51.950;5.902;2023-09-08T00:54:05;101630.72;;;20.11;75.28
38466;BME280;24244;51.950;5.902;2023-09-08T00:56:33;101643.03;;;20.07;75.44
38466;BME280;24244;51.950;5.902;2023-09-08T00:59:00;101644.31;;;20.04;75.57
38466;BME280;24244;51.950;5.902;2023-09-08T01:01:31;101641.25;;;20.01;75.67
38466;BME280;24244;51.950;5.902;2023-09-08T01:03:58;101628.81;;;20.00;75.64
38466;BME280;24244;51.950;5.902;2023-09-08T01:06:25;101640.03;;;19.97;75.72
38466;BME280;24244;51.950;5.902;2023-09-08T01:08:53;101634.28;;;19.93;75.79
38466;BME280;24244;51.950;5.902;2023-09-08T01:11:21;101630.97;;;19.91;75.84
38466;BME280;24244;51.950;5.902;2023-09-08T01:13:48;101639.31;;;19.89;75.73
38466;BME280;24244;51.950;5.902;2023-09-08T01:16:15;101637.69;;;19.88;75.88
38466;BME280;24244;51.950;5.902;2023-09-08T01:18:46;101629.81;;;19.87;75.82
38466;BME280;24244;51.950;5.902;2023-09-08T01:21:37;101629.19;;;19.85;75.83
38466;BME280;24244;51.950;5.902;2023-09-08T01:24:21;101628.59;;;19.83;75.86
38466;BME280;24244;51.950;5.902;2023-09-08T01:26:53;101632.59;;;19.80;75.94
38466;BME280;24244;51.950;5.902;2023-09-08T01:29:21;101629.50;;;19.77;76.05
38466;BME280;24244;51.950;5.902;2023-09-08T01:31:51;101622.69;;;19.74;76.29
38466;BME280;24244;51.950;5.902;2023-09-08T01:34:18;101627.50;;;19.72;76.17
38466;BME280;24244;51.950;5.902;2023-09-08T01:36:45;101625.22;;;19.69;76.26
38466;BME280;24244;51.950;5.902;2023-09-08T01:39:12;101626.53;;;19.67;76.25
38466;BME280;24244;51.950;5.902;2023-09-08T01:41:40;101627.78;;;19.64;76.33
38466;BME280;24244;51.950;5.902;2023-09-08T01:44:09;101627.16;;;19.62;76.46
38466;BME280;24244;51.950;5.902;2023-09-08T01:46:37;101630.91;;;19.61;76.57
38466;BME280;24244;51.950;5.902;2023-09-08T01:49:05;101622.25;;;19.59;76.56
38466;BME280;24244;51.950;5.902;2023-09-08T01:51:32;101624.34;;;19.57;76.64
38466;BME280;24244;51.950;5.902;2023-09-08T01:53:59;101622.06;;;19.54;76.61
38466;BME280;24244;51.950;5.902;2023-09-08T01:56:26;101614.44;;;19.51;76.65
38466;BME280;24244;51.950;5.902;2023-09-08T01:58:52;101620.28;;;19.48;76.78
38466;BME280;24244;51.950;5.902;2023-09-08T02:01:21;101616.97;;;19.46;76.67
38466;BME280;24244;51.950;5.902;2023-09-08T02:03:48;101615.31;;;19.45;76.88
38466;BME280;24244;51.950;5.902;2023-09-08T02:06:15;101617.41;;;19.43;76.92
38466;BME280;24244;51.950;5.902;2023-09-08T02:08:41;101611.66;;;19.39;77.04
38466;BME280;24244;51.950;5.902;2023-09-08T02:11:08;101613.72;;;19.37;77.05
38466;BME280;24244;51.950;5.902;2023-09-08T02:13:35;101612.09;;;19.36;77.02
38466;BME280;24244;51.950;5.902;2023-09-08T02:16:02;101616.03;;;19.34;77.29
38466;BME280;24244;51.950;5.902;2023-09-08T02:18:30;101611.69;;;19.33;77.08
38466;BME280;24244;51.950;5.902;2023-09-08T02:20:57;101620.25;;;19.30;77.22
38466;BME280;24244;51.950;5.902;2023-09-08T02:23:25;101618.81;;;19.27;77.29
38466;BME280;24244;51.950;5.902;2023-09-08T02:25:52;101620.09;;;19.25;77.32
38466;BME280;24244;51.950;5.902;2023-09-08T02:28:19;101619.47;;;19.23;77.56
38466;BME280;24244;51.950;5.902;2023-09-08T02:30:46;101615.97;;;19.22;77.49
38466;BME280;24244;51.950;5.902;2023-09-08T02:33:12;101612.88;;;19.18;77.55
38466;BME280;24244;51.950;5.902;2023-09-08T02:35:41;101613.94;;;19.17;77.70
38466;BME280;24244;51.950;5.902;2023-09-08T02:38:08;101608.97;;;19.14;77.82
38466;BME280;24244;51.950;5.902;2023-09-08T02:40:35;101610.22;;;19.12;77.77
38466;BME280;24244;51.950;5.902;2023-09-08T02:43:02;101609.66;;;19.10;77.73
38466;BME280;24244;51.950;5.902;2023-09-08T02:45:30;101609.88;;;19.08;77.75
38466;BME280;24244;51.950;5.902;2023-09-08T02:47:59;101610.09;;;19.07;78.08
38466;BME280;24244;51.950;5.902;2023-09-08T02:50:26;101598.69;;;19.05;77.84
38466;BME280;24244;51.950;5.902;2023-09-08T02:52:54;101601.63;;;19.03;77.98
38466;BME280;24244;51.950;5.902;2023-09-08T02:55:21;101613.44;;;19.02;77.92
38466;BME280;24244;51.950;5.902;2023-09-08T02:57:48;101610.75;;;19.02;78.09
38466;BME280;24244;51.950;5.902;2023-09-08T03:00:15;101615.53;;;19.00;78.12
38466;BME280;24244;51.950;5.902;2023-09-08T03:02:42;101612.84;;;19.00;78.13
38466;BME280;24244;51.950;5.902;2023-09-08T03:05:09;101617.63;;;18.98;78.25
38466;BME280;24244;51.950;5.902;2023-09-08T03:07:36;101609.78;;;18.97;78.08
38466;BME280;24244;51.950;5.902;2023-09-08T03:10:06;101614.34;;;18.96;78.09
38466;BME280;24244;51.950;5.902;2023-09-08T03:12:33;101617.25;;;18.95;78.10
38466;BME280;24244;51.950;5.902;2023-09-08T03:15:01;101613.13;;;18.92;78.14
38466;BME280;24244;51.950;5.902;2023-09-08T03:17:28;101613.56;;;18.89;78.30
38466;BME280;24244;51.950;5.902;2023-09-08T03:19:55;101614.63;;;18.88;78.47
38466;BME280;24244;51.950;5.902;2023-09-08T03:22:22;101618.56;;;18.86;78.56
38466;BME280;24244;51.950;5.902;2023-09-08T03:24:49;101612.34;;;18.85;78.41
38466;BME280;24244;51.950;5.902;2023-09-08T03:27:17;101612.56;;;18.84;78.64
38466;BME280;24244;51.950;5.902;2023-09-08T03:29:44;101608.00;;;18.84;78.62
38466;BME280;24244;51.950;5.902;2023-09-08T03:32:11;101607.41;;;18.82;78.72
38466;BME280;24244;51.950;5.902;2023-09-08T03:34:38;101607.84;;;18.79;78.70
38466;BME280;24244;51.950;5.902;2023-09-08T03:37:06;101608.06;;;18.77;78.85
38466;BME280;24244;51.950;5.902;2023-09-08T03:39:33;101609.34;;;18.75;78.89
38466;BME280;24244;51.950;5.902;2023-09-08T03:42:01;101612.03;;;18.75;78.94
38466;BME280;24244;51.950;5.902;2023-09-08T03:44:29;101606.03;;;18.73;78.97
38466;BME280;24244;51.950;5.902;2023-09-08T03:46:56;101608.09;;;18.71;78.94
38466;BME280;24244;51.950;5.902;2023-09-08T03:49:23;101610.81;;;18.71;79.15
38466;BME280;24244;51.950;5.902;2023-09-08T03:51:50;101607.06;;;18.72;79.34
38466;BME280;24244;51.950;5.902;2023-09-08T03:54:16;101607.91;;;18.72;79.21
38466;BME280;24244;51.950;5.902;2023-09-08T03:56:43;101604.38;;;18.72;79.33
38466;BME280;24244;51.950;5.902;2023-09-08T03:59:10;101598.16;;;18.71;79.25
38466;BME280;24244;51.950;5.902;2023-09-08T04:01:38;101602.72;;;18.71;79.20
38466;BME280;24244;51.950;5.902;2023-09-08T04:04:05;101607.28;;;18.70;79.15
38466;BME280;24244;51.950;5.902;2023-09-08T04:06:32;101607.50;;;18.69;79.23
38466;BME280;24244;51.950;5.902;2023-09-08T04:09:01;101604.81;;;18.69;79.22
38466;BME280;24244;51.950;5.902;2023-09-08T04:11:27;101611.00;;;18.69;79.16
38466;BME280;24244;51.950;5.902;2023-09-08T04:13:54;101606.69;;;18.68;79.21
38466;BME280;24244;51.950;5.902;2023-09-08T04:16:22;101603.19;;;18.68;79.23
38466;BME280;24244;51.950;5.902;2023-09-08T04:18:50;101605.03;;;18.67;79.32
38466;BME280;24244;51.950;5.902;2023-09-08T04:21:21;101605.25;;;18.66;79.44
38466;BME280;24244;51.950;5.902;2023-09-08T04:23:48;101603.38;;;18.66;79.39
38466;BME280;24244;51.950;5.902;2023-09-08T04:26:15;101599.88;;;18.66;79.37
38466;BME280;24244;51.950;5.902;2023-09-08T04:28:42;101602.56;;;18.66;79.32
38466;BME280;24244;51.950;5.902;2023-09-08T04:31:09;101593.66;;;18.65;79.33
38466;BME280;24244;51.950;5.902;2023-09-08T04:33:36;101599.25;;;18.64;79.43
38466;BME280;24244;51.950;5.902;2023-09-08T04:36:05;101596.56;;;18.64;79.50
38466;BME280;24244;51.950;5.902;2023-09-08T04:38:32;101609.19;;;18.63;79.39
38466;BME280;24244;51.950;5.902;2023-09-08T04:40:58;101600.09;;;18.64;79.44
38466;BME280;24244;51.950;5.902;2023-09-08T04:43:25;101603.00;;;18.63;79.50
38466;BME280;24244;51.950;5.902;2023-09-08T04:45:52;101608.63;;;18.61;79.41
38466;BME280;24244;51.950;5.902;2023-09-08T04:48:19;101603.44;;;18.60;79.33
38466;BME280;24244;51.950;5.902;2023-09-08T04:50:46;101607.16;;;18.59;79.50
38466;BME280;24244;51.950;5.902;2023-09-08T04:53:14;101602.81;;;18.58;79.59
38466;BME280;24244;51.950;5.902;2023-09-08T04:55:42;101601.16;;;18.57;79.65
38466;BME280;24244;51.950;5.902;2023-09-08T04:58:08;101603.88;;;18.57;79.67
38466;BME280;24244;51.950;5.902;2023-09-08T05:00:37;101605.72;;;18.56;79.71
38466;BME280;24244;51.950;5.902;2023-09-08T05:03:05;101604.91;;;18.56;79.82
38466;BME280;24244;51.950;5.902;2023-09-08T05:05:32;101604.91;;;18.56;79.82
38466;BME280;24244;51.950;5.902;2023-09-08T05:08:00;101603.22;;;18.55;79.66
38466;BME280;24244;51.950;5.902;2023-09-08T05:10:28;101603.03;;;18.56;79.82
38466;BME280;24244;51.950;5.902;2023-09-08T05:12:55;101595.38;;;18.53;79.65
38466;BME280;24244;51.950;5.902;2023-09-08T05:15:21;101598.06;;;18.53;79.82
38466;BME280;24244;51.950;5.902;2023-09-08T05:17:49;101595.38;;;18.53;79.86
38466;BME280;24244;51.950;5.902;2023-09-08T05:20:16;101601.59;;;18.54;80.04
38466;BME280;24244;51.950;5.902;2023-09-08T05:22:43;101604.28;;;18.54;79.79
38466;BME280;24244;51.950;5.902;2023-09-08T05:25:10;101603.47;;;18.53;79.76
38466;BME280;24244;51.950;5.902;2023-09-08T05:27:38;101604.28;;;18.54;79.93
38466;BME280;24244;51.950;5.902;2023-09-08T05:30:06;101606.75;;;18.55;80.06
38466;BME280;24244;51.950;5.902;2023-09-08T05:32:33;101603.22;;;18.55;79.97
38466;BME280;24244;51.950;5.902;2023-09-08T05:35:02;101602.22;;;18.56;80.01
38466;BME280;24244;51.950;5.902;2023-09-08T05:37:29;101605.91;;;18.55;80.25
38466;BME280;24244;51.950;5.902;2023-09-08T05:39:56;101600.53;;;18.55;80.26
38466;BME280;24244;51.950;5.902;2023-09-08T05:42:23;101605.72;;;18.56;80.24
38466;BME280;24244;51.950;5.902;2023-09-08T05:44:51;101616.28;;;18.58;80.24
38466;BME280;24244;51.950;5.902;2023-09-08T05:47:18;101612.56;;;18.59;80.18
38466;BME280;24244;51.950;5.902;2023-09-08T05:49:45;101610.47;;;18.61;80.16
38466;BME280;24244;51.950;5.902;2023-09-08T05:52:12;101616.69;;;18.61;80.17
38466;BME280;24244;51.950;5.902;2023-09-08T05:54:39;101608.81;;;18.60;80.45
38466;BME280;24244;51.950;5.902;2023-09-08T05:57:06;101612.94;;;18.62;80.46
38466;BME280;24244;51.950;5.902;2023-09-08T05:59:33;101617.06;;;18.65;80.41
38466;BME280;24244;51.950;5.902;2023-09-08T06:02:01;101616.84;;;18.66;80.28
38466;BME280;24244;51.950;5.902;2023-09-08T06:04:28;101612.88;;;18.69;80.37
38466;BME280;24244;51.950;5.902;2023-09-08T06:06:55;101620.97;;;18.69;80.30
38466;BME280;24244;51.950;5.902;2023-09-08T06:09:22;101622.63;;;18.70;80.40
38466;BME280;24244;51.950;5.902;2023-09-08T06:11:49;101618.66;;;18.72;80.35
38466;BME280;24244;51.950;5.902;2023-09-08T06:14:18;101621.16;;;18.74;80.43
38466;BME280;24244;51.950;5.902;2023-09-08T06:16:44;101616.34;;;18.76;80.45
38466;BME280;24244;51.950;5.902;2023-09-08T06:19:13;101620.69;;;18.77;80.33
38466;BME280;24244;51.950;5.902;2023-09-08T06:21:40;101621.53;;;18.77;80.46
38466;BME280;24244;51.950;5.902;2023-09-08T06:24:07;101620.47;;;18.78;80.53
38466;BME280;24244;51.950;5.902;2023-09-08T06:26:34;101622.97;;;18.80;80.47
38466;BME280;24244;51.950;5.902;2023-09-08T06:29:01;101614.44;;;18.83;80.51
38466;BME280;24244;51.950;5.902;2023-09-08T06:31:28;101618.34;;;18.87;80.38
38466;BME280;24244;51.950;5.902;2023-09-08T06:33:55;101624.34;;;18.89;80.48
38466;BME280;24244;51.950;5.902;2023-09-08T06:36:24;101627.63;;;18.91;80.74
38466;BME280;24244;51.950;5.902;2023-09-08T06:38:50;101626.59;;;18.92;80.59
38466;BME280;24244;51.950;5.902;2023-09-08T06:41:17;101621.81;;;18.94;80.56
38466;BME280;24244;51.950;5.902;2023-09-08T06:43:44;101621.59;;;18.96;80.53
38466;BME280;24244;51.950;5.902;2023-09-08T06:46:11;101623.63;;;19.00;80.70
38466;BME280;24244;51.950;5.902;2023-09-08T06:48:38;101625.06;;;19.03;80.60
38466;BME280;24244;51.950;5.902;2023-09-08T06:51:05;101627.28;;;19.06;80.51
38466;BME280;24244;51.950;5.902;2023-09-08T06:53:34;101622.53;;;19.08;80.56
38466;BME280;24244;51.950;5.902;2023-09-08T06:56:00;101625.00;;;19.09;80.58
38466;BME280;24244;51.950;5.902;2023-09-08T06:58:27;101633.22;;;19.14;80.70
38466;BME280;24244;51.950;5.902;2023-09-08T07:00:54;101630.53;;;19.14;80.61
38466;BME280;24244;51.950;5.902;2023-09-08T07:03:21;101637.13;;;19.18;80.72
38466;BME280;24244;51.950;5.902;2023-09-08T07:05:53;101638.34;;;19.23;80.69
38466;BME280;24244;51.950;5.902;2023-09-08T07:08:20;101629.81;;;19.26;80.69
38466;BME280;24244;51.950;5.902;2023-09-08T07:10:51;101637.47;;;19.29;80.71
38466;BME280;24244;51.950;5.902;2023-09-08T07:13:18;101639.72;;;19.32;80.77
38466;BME280;24244;51.950;5.902;2023-09-08T07:15:45;101640.09;;;19.35;80.87
38466;BME280;24244;51.950;5.902;2023-09-08T07:18:12;101636.97;;;19.38;80.90
38466;BME280;24244;51.950;5.902;2023-09-08T07:20:39;101634.63;;;19.42;80.81
38466;BME280;24244;51.950;5.902;2023-09-08T07:23:06;101632.31;;;19.45;80.73
38466;BME280;24244;51.950;5.902;2023-09-08T07:25:33;101636.47;;;19.48;80.58
38466;BME280;24244;51.950;5.902;2023-09-08T07:28:01;101633.09;;;19.52;80.77
38466;BME280;24244;51.950;5.902;2023-09-08T07:30:28;101631.81;;;19.55;80.78
38466;BME280;24244;51.950;5.902;2023-09-08T07:32:55;101633.84;;;19.60;80.75
38466;BME280;24244;51.950;5.902;2023-09-08T07:35:22;101634.00;;;19.65;80.67
38466;BME280;24244;51.950;5.902;2023-09-08T07:37:50;101637.31;;;19.67;80.80
38466;BME280;24244;51.950;5.902;2023-09-08T07:40:17;101631.22;;;19.71;80.63
38466;BME280;24244;51.950;5.902;2023-09-08T07:42:44;101635.09;;;19.75;80.59
38466;BME280;24244;51.950;5.902;2023-09-08T07:45:12;101635.28;;;19.80;80.66
38466;BME280;24244;51.950;5.902;2023-09-08T07:47:39;101633.16;;;19.82;80.69
38466;BME280;24244;51.950;5.902;2023-09-08T07:50:17;101633.31;;;19.87;80.51
38466;BME280;24244;51.950;5.902;2023-09-08T07:52:46;101631.38;;;19.94;80.00
38466;BME280;24244;51.950;5.902;2023-09-08T07:55:13;101642.53;;;19.98;80.19
38466;BME280;24244;51.950;5.902;2023-09-08T07:57:41;101640.00;;;20.03;80.21
38466;BME280;24244;51.950;5.902;2023-09-08T08:00:08;101636.59;;;20.08;80.01
38466;BME280;24244;51.950;5.902;2023-09-08T08:02:44;101631.56;;;20.11;80.09
38466;BME280;24244;51.950;5.902;2023-09-08T08:05:12;101635.25;;;20.17;79.99
38466;BME280;24244;51.950;5.902;2023-09-08T08:07:39;101636.41;;;20.21;79.73
38466;BME280;24244;51.950;5.902;2023-09-08T08:10:07;101638.66;;;20.24;79.74
38466;BME280;24244;51.950;5.902;2023-09-08T08:12:34;101636.09;;;20.29;79.88
38466;BME280;24244;51.950;5.902;2023-09-08T08:15:01;101627.53;;;20.32;80.08
38466;BME280;24244;51.950;5.902;2023-09-08T08:17:28;101630.63;;;20.36;79.86
38466;BME280;24244;51.950;5.902;2023-09-08T08:19:58;101632.91;;;20.39;79.72
38466;BME280;24244;51.950;5.902;2023-09-08T08:22:25;101633.84;;;20.44;79.79
38466;BME280;24244;51.950;5.902;2023-09-08T08:24:52;101627.97;;;20.47;80.07
38466;BME280;24244;51.950;5.902;2023-09-08T08:27:18;101621.63;;;20.53;79.89
38466;BME280;24244;51.950;5.902;2023-09-08T08:29:45;101632.81;;;20.57;80.03
38466;BME280;24244;51.950;5.902;2023-09-08T08:32:12;101634.81;;;20.61;79.57
38466;BME280;24244;51.950;5.902;2023-09-08T08:34:39;101624.38;;;20.65;79.70
38466;BME280;24244;51.950;5.902;2023-09-08T08:37:07;101622.84;;;20.69;79.76
38466;BME280;24244;51.950;5.902;2023-09-08T08:39:34;101632.97;;;20.74;80.12
38466;BME280;24244;51.950;5.902;2023-09-08T08:42:06;101629.13;;;20.81;80.01
38466;BME280;24244;51.950;5.902;2023-09-08T08:44:33;101621.13;;;20.86;79.79
38466;BME280;24244;51.950;5.902;2023-09-08T08:47:02;101623.94;;;20.91;79.82
38466;BME280;24244;51.950;5.902;2023-09-08T08:49:30;101632.16;;;20.96;79.81
38466;BME280;24244;51.950;5.902;2023-09-08T08:51:59;101630.44;;;21.02;79.86
38466;BME280;24244;51.950;5.902;2023-09-08T08:54:28;101633.03;;;21.08;79.92
38466;BME280;24244;51.950;5.902;2023-09-08T08:56:55;101632.09;;;21.15;79.65
38466;BME280;24244;51.950;5.902;2023-09-08T08:59:22;101624.94;;;21.20;79.77
38466;BME280;24244;51.950;5.902;2023-09-08T09:01:49;101632.09;;;21.26;79.75
38466;BME280;24244;51.950;5.902;2023-09-08T09:04:17;101626.25;;;21.29;79.63
38466;BME280;24244;51.950;5.902;2023-09-08T09:06:44;101635.28;;;21.35;79.73
38466;BME280;24244;51.950;5.902;2023-09-08T09:09:12;101627.03;;;21.41;79.89
38466;BME280;24244;51.950;5.902;2023-09-08T09:11:41;101628.78;;;21.47;79.72
38466;BME280;24244;51.950;5.902;2023-09-08T09:14:08;101628.94;;;21.53;79.81
38466;BME280;24244;51.950;5.902;2023-09-08T09:16:39;101615.72;;;21.56;79.81
38466;BME280;24244;51.950;5.902;2023-09-08T09:19:06;101622.06;;;21.62;79.62
38466;BME280;24244;51.950;5.902;2023-09-08T09:21:42;101617.59;;;21.67;79.93
38466;BME280;24244;51.950;5.902;2023-09-08T09:24:13;101628.31;;;21.74;79.67
38466;BME280;24244;51.950;5.902;2023-09-08T09:26:42;101626.28;;;21.81;79.66
38466;BME280;24244;51.950;5.902;2023-09-08T09:29:11;101625.31;;;21.87;79.60
38466;BME280;24244;51.950;5.902;2023-09-08T09:31:50;101625.41;;;21.92;79.52
38466;BME280;24244;51.950;5.902;2023-09-08T09:34:18;101618.47;;;21.96;79.45
38466;BME280;24244;51.950;5.902;2023-09-08T09:36:45;101625.91;;;22.01;79.28
38466;BME280;24244;51.950;5.902;2023-09-08T09:39:12;101619.50;;;22.07;79.14
38466;BME280;24244;51.950;5.902;2023-09-08T09:41:41;101619.69;;;22.17;79.24
38466;BME280;24244;51.950;5.902;2023-09-08T09:44:10;101622.84;;;22.25;78.90
38466;BME280;24244;51.950;5.902;2023-09-08T09:46:37;101613.75;;;22.32;78.84
38466;BME280;24244;51.950;5.902;2023-09-08T09:49:03;101620.91;;;22.38;78.94
38466;BME280;24244;51.950;5.902;2023-09-08T09:51:40;101622.66;;;22.44;78.69
38466;BME280;24244;51.950;5.902;2023-09-08T09:54:07;101619.53;;;22.52;78.75
38466;BME280;24244;51.950;5.902;2023-09-08T09:56:34;101628.34;;;22.59;78.66
38466;BME280;24244;51.950;5.902;2023-09-08T09:59:04;101625.47;;;22.65;78.65
38466;BME280;24244;51.950;5.902;2023-09-08T10:01:35;101622.00;;;22.70;78.66
38466;BME280;24244;51.950;5.902;2023-09-08T10:04:02;101621.88;;;22.77;78.74
38466;BME280;24244;51.950;5.902;2023-09-08T10:06:31;101618.25;;;22.88;78.42
38466;BME280;24244;51.950;5.902;2023-09-08T10:08:59;101613.75;;;22.93;78.34
38466;BME280;24244;51.950;5.902;2023-09-08T10:11:28;101615.22;;;23.01;78.40
38466;BME280;24244;51.950;5.902;2023-09-08T10:13:58;101609.63;;;23.08;78.33
38466;BME280;24244;51.950;5.902;2023-09-08T10:16:27;101608.72;;;23.19;78.22
38466;BME280;24244;51.950;5.902;2023-09-08T10:18:57;101613.13;;;23.25;78.01
38466;BME280;24244;51.950;5.902;2023-09-08T10:21:26;101613.78;;;23.32;77.98
38466;BME280;24244;51.950;5.902;2023-09-08T10:24:00;101606.47;;;23.49;77.50
38466;BME280;24244;51.950;5.902;2023-09-08T10:26:33;101605.78;;;23.59;76.94
38466;BME280;24244;51.950;5.902;2023-09-08T10:29:02;101602.06;;;23.65;76.77
38466;BME280;24244;51.950;5.902;2023-09-08T10:31:30;101598.56;;;23.69;76.56
38466;BME280;24244;51.950;5.902;2023-09-08T10:33:58;101600.50;;;23.74;76.66
38466;BME280;24244;51.950;5.902;2023-09-08T10:36:25;101601.22;;;23.86;76.71
38466;BME280;24244;51.950;5.902;2023-09-08T10:38:52;101592.63;;;23.94;76.54
38466;BME280;24244;51.950;5.902;2023-09-08T10:41:28;101591.59;;;24.00;76.20
38466;BME280;24244;51.950;5.902;2023-09-08T10:43:56;101592.22;;;24.07;76.26
38466;BME280;24244;51.950;5.902;2023-09-08T10:46:26;101586.00;;;24.12;76.43
38466;BME280;24244;51.950;5.902;2023-09-08T10:48:55;101583.34;;;24.17;76.30
38466;BME280;24244;51.950;5.902;2023-09-08T10:51:27;101590.25;;;24.25;76.07
38466;BME280;24244;51.950;5.902;2023-09-08T10:53:54;101601.47;;;24.33;75.87
38466;BME280;24244;51.950;5.902;2023-09-08T10:56:22;101591.53;;;24.44;75.43
38466;BME280;24244;51.950;5.902;2023-09-08T10:58:54;101589.69;;;24.49;75.58
38466;BME280;24244;51.950;5.902;2023-09-08T11:01:21;101594.06;;;24.55;75.60
38466;BME280;24244;51.950;5.902;2023-09-08T11:03:56;101595.25;;;24.65;75.26
38466;BME280;24244;51.950;5.902;2023-09-08T11:06:25;101590.66;;;24.70;75.18
38466;BME280;24244;51.950;5.902;2023-09-08T11:09:06;101592.09;;;24.78;74.86
38466;BME280;24244;51.950;5.902;2023-09-08T11:11:33;101586.69;;;24.83;74.68
38466;BME280;24244;51.950;5.902;2023-09-08T11:14:00;101591.59;;;24.86;74.59
38466;BME280;24244;51.950;5.902;2023-09-08T11:16:28;101589.16;;;24.89;74.69
38466;BME280;24244;51.950;5.902;2023-09-08T11:18:59;101587.31;;;24.95;74.76
38466;BME280;24244;51.950;5.902;2023-09-08T11:21:28;101587.91;;;25.02;74.55
38466;BME280;24244;51.950;5.902;2023-09-08T11:24:01;101588.25;;;25.11;74.49
38466;BME280;24244;51.950;5.902;2023-09-08T11:26:29;101584.78;;;25.20;74.21
38466;BME280;24244;51.950;5.902;2023-09-08T11:28:56;101583.47;;;25.28;73.89
38466;BME280;24244;51.950;5.902;2023-09-08T11:31:23;101587.06;;;25.39;73.60
38466;BME280;24244;51.950;5.902;2023-09-08T11:33:54;101583.31;;;25.50;73.23
38466;BME280;24244;51.950;5.902;2023-09-08T11:36:23;101586.59;;;25.57;73.03
38466;BME280;24244;51.950;5.902;2023-09-08T11:38:50;101582.03;;;25.62;72.93
38466;BME280;24244;51.950;5.902;2023-09-08T11:41:16;101588.03;;;25.69;72.91
38466;BME280;24244;51.950;5.902;2023-09-08T11:43:44;101583.16;;;25.77;72.40
38466;BME280;24244;51.950;5.902;2023-09-08T11:46:11;101581.28;;;25.82;72.22
38466;BME280;24244;51.950;5.902;2023-09-08T11:48:38;101586.19;;;25.85;72.11
38466;BME280;24244;51.950;5.902;2023-09-08T11:51:06;101582.38;;;25.86;72.16
38466;BME280;24244;51.950;5.902;2023-09-08T11:53:35;101578.84;;;25.91;72.25
38466;BME280;24244;51.950;5.902;2023-09-08T11:56:04;101580.50;;;26.02;71.90
38466;BME280;24244;51.950;5.902;2023-09-08T11:58:31;101582.69;;;26.10;71.63
38466;BME280;24244;51.950;5.902;2023-09-08T12:00:59;101584.63;;;26.20;71.38
38466;BME280;24244;51.950;5.902;2023-09-08T12:03:26;101573.75;;;26.25;71.47
38466;BME280;24244;51.950;5.902;2023-09-08T12:05:53;101573.25;;;26.28;71.42
38466;BME280;24244;51.950;5.902;2023-09-08T12:08:20;101574.31;;;26.32;71.50
38466;BME280;24244;51.950;5.902;2023-09-08T12:10:48;101576.53;;;26.35;71.35
38466;BME280;24244;51.950;5.902;2023-09-08T12:13:20;101575.97;;;26.38;71.06
38466;BME280;24244;51.950;5.902;2023-09-08T12:15:47;101571.06;;;26.40;71.26
38466;BME280;24244;51.950;5.902;2023-09-08T12:18:14;101574.03;;;26.43;71.33
38466;BME280;24244;51.950;5.902;2023-09-08T12:20:43;101563.69;;;26.45;71.20
38466;BME280;24244;51.950;5.902;2023-09-08T12:23:16;101571.06;;;26.50;71.10
38466;BME280;24244;51.950;5.902;2023-09-08T12:25:45;101562.88;;;26.55;70.91
38466;BME280;24244;51.950;5.902;2023-09-08T12:28:13;101570.25;;;26.60;70.78
38466;BME280;24244;51.950;5.902;2023-09-08T12:30:40;101563.16;;;26.64;70.30
38466;BME280;24244;51.950;5.902;2023-09-08T12:33:08;101565.59;;;26.70;70.18
38466;BME280;24244;51.950;5.902;2023-09-08T12:35:36;101565.84;;;26.79;70.10
38466;BME280;24244;51.950;5.902;2023-09-08T12:38:05;101563.13;;;26.84;69.75
38466;BME280;24244;51.950;5.902;2023-09-08T12:40:34;101554.94;;;26.89;69.74
38466;BME280;24244;51.950;5.902;2023-09-08T12:43:02;101562.03;;;26.95;69.68
38466;BME280;24244;51.950;5.902;2023-09-08T12:45:48;101560.13;;;27.01;69.40
38466;BME280;24244;51.950;5.902;2023-09-08T12:48:15;101558.22;;;27.06;69.40
38466;BME280;24244;51.950;5.902;2023-09-08T12:50:42;101555.47;;;27.11;69.04
38466;BME280;24244;51.950;5.902;2023-09-08T12:53:09;101551.06;;;27.15;69.02
38466;BME280;24244;51.950;5.902;2023-09-08T12:55:36;101560.09;;;27.21;68.72